sensor_id;sensor_type;location;lat;lon;timestamp;pressure;altitude;pressure_sealevel;temperature;humidity
45403;BME280;47427;51.976;5.326;2022-12-07T00:02:07;101764.75;;;3.33;100.00
45403;BME280;47427;51.976;5.326;2022-12-07T00:05:30;101775.03;;;3.32;100.00
45403;BME280;47427;51.976;5.326;2022-12-07T00:08:51;101777.94;;;3.36;100.00
45403;BME280;47427;51.976;5.326;2022-12-07T00:12:13;101782.91;;;3.70;100.00
45403;BME280;47427;51.976;5.326;2022-12-07T00:15:35;101767.75;;;3.89;100.00
45403;BME280;47427;51.976;5.326;2022-12-07T00:18:57;101773.41;;;4.09;100.00
45403;BME280;47427;51.976;5.326;2022-12-07T00:22:18;101780.19;;;4.07;100.00
45403;BME280;47427;51.976;5.326;2022-12-07T00:25:40;101779.84;;;3.89;100.00
45403;BME280;47427;51.976;5.326;2022-12-07T00:29:13;101774.81;;;3.79;100.00
45403;BME280;47427;51.976;5.326;2022-12-07T00:32:50;101764.06;;;3.86;100.00
45403;BME280;47427;51.976;5.326;2022-12-07T00:36:17;101767.38;;;3.97;100.00
45403;BME280;47427;51.976;5.326;2022-12-07T00:39:39;101769.72;;;4.05;100.00
45403;BME280;47427;51.976;5.326;2022-12-07T00:43:01;101761.13;;;4.20;100.00
45403;BME280;47427;51.976;5.326;2022-12-07T00:46:23;101760.25;;;4.19;100.00
45403;BME280;47427;51.976;5.326;2022-12-07T00:49:45;101760.91;;;3.90;100.00
45403;BME280;47427;51.976;5.326;2022-12-07T00:53:07;101747.63;;;3.60;100.00
45403;BME280;47427;51.976;5.326;2022-12-07T00:56:29;101761.00;;;3.41;100.00
45403;BME280;47427;51.976;5.326;2022-12-07T00:59:52;101755.44;;;3.23;100.00
45403;BME280;47427;51.976;5.326;2022-12-07T01:03:17;101742.28;;;3.09;100.00
45403;BME280;47427;51.976;5.326;2022-12-07T01:06:39;101753.94;;;3.02;100.00
45403;BME280;47427;51.976;5.326;2022-12-07T01:10:00;101752.38;;;2.92;100.00
45403;BME280;47427;51.976;5.326;2022-12-07T01:13:22;101750.81;;;2.82;100.00
45403;BME280;47427;51.976;5.326;2022-12-07T01:16:43;101742.38;;;2.73;100.00
45403;BME280;47427;51.976;5.326;2022-12-07T01:20:06;101755.69;;;2.66;100.00
45403;BME280;47427;51.976;5.326;2022-12-07T01:23:28;101771.91;;;2.64;100.00
45403;BME280;47427;51.976;5.326;2022-12-07T01:26:50;101774.25;;;2.60;100.00
45403;BME280;47427;51.976;5.326;2022-12-07T01:30:12;101771.47;;;2.57;100.00
45403;BME280;47427;51.976;5.326;2022-12-07T01:33:36;101774.50;;;2.52;100.00
45403;BME280;47427;51.976;5.326;2022-12-07T01:36:58;101776.28;;;2.53;100.00
45403;BME280;47427;51.976;5.326;2022-12-07T01:40:20;101757.28;;;2.41;100.00
45403;BME280;47427;51.976;5.326;2022-12-07T01:47:32;101753.44;;;2.35;100.00
45403;BME280;47427;51.976;5.326;2022-12-07T01:50:55;101754.56;;;2.27;100.00
45403;BME280;47427;51.976;5.326;2022-12-07T01:54:19;101764.16;;;2.28;100.00
45403;BME280;47427;51.976;5.326;2022-12-07T01:57:49;101753.13;;;2.31;100.00
45403;BME280;47427;51.976;5.326;2022-12-07T02:01:12;101750.63;;;2.44;100.00
45403;BME280;47427;51.976;5.326;2022-12-07T02:04:34;101755.34;;;2.50;100.00
45403;BME280;47427;51.976;5.326;2022-12-07T02:07:57;101742.66;;;2.41;100.00
45403;BME280;47427;51.976;5.326;2022-12-07T02:11:19;101752.34;;;2.44;100.00
45403;BME280;47427;51.976;5.326;2022-12-07T02:14:42;101750.16;;;2.38;100.00
45403;BME280;47427;51.976;5.326;2022-12-07T02:18:26;101748.63;;;2.28;100.00
45403;BME280;47427;51.976;5.326;2022-12-07T02:22:00;101767.63;;;2.29;100.00
45403;BME280;47427;51.976;5.326;2022-12-07T02:33:13;101767.75;;;2.42;100.00
45403;BME280;47427;51.976;5.326;2022-12-07T02:36:43;101762.09;;;2.48;100.00
45403;BME280;47427;51.976;5.326;2022-12-07T02:40:31;101761.31;;;2.60;100.00
45403;BME280;47427;51.976;5.326;2022-12-07T02:43:59;101751.38;;;2.78;100.00
45403;BME280;47427;51.976;5.326;2022-12-07T02:47:23;101743.72;;;2.92;100.00
45403;BME280;47427;51.976;5.326;2022-12-07T02:50:51;101736.00;;;3.05;100.00
45403;BME280;47427;51.976;5.326;2022-12-07T02:54:18;101730.88;;;3.18;100.00
45403;BME280;47427;51.976;5.326;2022-12-07T02:58:30;101732.06;;;3.35;100.00
45403;BME280;47427;51.976;5.326;2022-12-07T03:02:46;101738.25;;;3.37;100.00
45403;BME280;47427;51.976;5.326;2022-12-07T03:06:20;101736.56;;;3.38;100.00
45403;BME280;47427;51.976;5.326;2022-12-07T03:13:50;101739.41;;;3.04;100.00
45403;BME280;47427;51.976;5.326;2022-12-07T03:17:24;101738.25;;;3.00;100.00
45403;BME280;47427;51.976;5.326;2022-12-07T03:20:53;101740.31;;;2.93;100.00
45403;BME280;47427;51.976;5.326;2022-12-07T03:24:22;101750.59;;;2.68;100.00
45403;BME280;47427;51.976;5.326;2022-12-07T03:27:57;101745.97;;;2.75;100.00
45403;BME280;47427;51.976;5.326;2022-12-07T03:31:32;101751.09;;;3.11;100.00
45403;BME280;47427;51.976;5.326;2022-12-07T03:35:01;101741.47;;;3.21;100.00
45403;BME280;47427;51.976;5.326;2022-12-07T03:38:44;101717.22;;;3.21;100.00
45403;BME280;47427;51.976;5.326;2022-12-07T03:42:07;101727.00;;;3.37;100.00
45403;BME280;47427;51.976;5.326;2022-12-07T03:45:44;101727.88;;;3.37;100.00
45403;BME280;47427;51.976;5.326;2022-12-07T03:49:38;101722.84;;;3.27;100.00
45403;BME280;47427;51.976;5.326;2022-12-07T03:53:37;101727.41;;;3.06;100.00
45403;BME280;47427;51.976;5.326;2022-12-07T03:57:02;101731.78;;;2.82;100.00
45403;BME280;47427;51.976;5.326;2022-12-07T04:00:26;101728.88;;;2.66;100.00
45403;BME280;47427;51.976;5.326;2022-12-07T04:03:47;101726.78;;;2.48;100.00
45403;BME280;47427;51.976;5.326;2022-12-07T04:07:10;101726.09;;;2.51;100.00
45403;BME280;47427;51.976;5.326;2022-12-07T04:10:32;101726.59;;;2.70;100.00
45403;BME280;47427;51.976;5.326;2022-12-07T04:13:54;101727.69;;;2.86;100.00
45403;BME280;47427;51.976;5.326;2022-12-07T04:17:34;101720.19;;;2.77;100.00
45403;BME280;47427;51.976;5.326;2022-12-07T04:20:56;101738.47;;;3.03;100.00
45403;BME280;47427;51.976;5.326;2022-12-07T04:24:18;101726.16;;;3.13;100.00
45403;BME280;47427;51.976;5.326;2022-12-07T04:27:40;101722.38;;;2.96;100.00
45403;BME280;47427;51.976;5.326;2022-12-07T04:31:01;101719.59;;;2.81;100.00
45403;BME280;47427;51.976;5.326;2022-12-07T04:34:25;101712.97;;;2.85;100.00
45403;BME280;47427;51.976;5.326;2022-12-07T04:37:46;101723.19;;;2.83;100.00
45403;BME280;47427;51.976;5.326;2022-12-07T04:41:09;101718.84;;;2.70;100.00
45403;BME280;47427;51.976;5.326;2022-12-07T04:44:30;101713.44;;;2.55;100.00
45403;BME280;47427;51.976;5.326;2022-12-07T04:47:52;101722.28;;;2.46;100.00
45403;BME280;47427;51.976;5.326;2022-12-07T04:51:20;101722.03;;;2.43;100.00
45403;BME280;47427;51.976;5.326;2022-12-07T04:54:41;101725.63;;;2.56;100.00
45403;BME280;47427;51.976;5.326;2022-12-07T04:58:03;101715.22;;;2.80;100.00
45403;BME280;47427;51.976;5.326;2022-12-07T05:01:25;101704.63;;;2.89;100.00
45403;BME280;47427;51.976;5.326;2022-12-07T05:04:47;101714.00;;;3.12;100.00
45403;BME280;47427;51.976;5.326;2022-12-07T05:08:08;101729.13;;;3.06;100.00
45403;BME280;47427;51.976;5.326;2022-12-07T05:11:30;101706.22;;;2.75;100.00
45403;BME280;47427;51.976;5.326;2022-12-07T05:15:01;101710.16;;;2.70;100.00
45403;BME280;47427;51.976;5.326;2022-12-07T05:18:24;101708.25;;;2.55;100.00
45403;BME280;47427;51.976;5.326;2022-12-07T05:21:46;101705.47;;;2.52;100.00
45403;BME280;47427;51.976;5.326;2022-12-07T05:25:08;101696.13;;;2.43;100.00
45403;BME280;47427;51.976;5.326;2022-12-07T05:28:30;101709.41;;;2.35;100.00
45403;BME280;47427;51.976;5.326;2022-12-07T05:31:51;101712.47;;;2.18;100.00
45403;BME280;47427;51.976;5.326;2022-12-07T05:35:13;101697.94;;;2.08;100.00
45403;BME280;47427;51.976;5.326;2022-12-07T05:38:35;101699.84;;;2.23;100.00
45403;BME280;47427;51.976;5.326;2022-12-07T05:41:56;101698.03;;;2.57;100.00
45403;BME280;47427;51.976;5.326;2022-12-07T05:45:33;101701.25;;;2.78;100.00
45403;BME280;47427;51.976;5.326;2022-12-07T05:48:55;101705.38;;;2.99;100.00
45403;BME280;47427;51.976;5.326;2022-12-07T05:52:16;101707.13;;;3.12;100.00
45403;BME280;47427;51.976;5.326;2022-12-07T05:55:38;101697.91;;;3.04;100.00
45403;BME280;47427;51.976;5.326;2022-12-07T05:58:59;101690.28;;;2.94;100.00
45403;BME280;47427;51.976;5.326;2022-12-07T06:02:41;101698.38;;;2.98;100.00
45403;BME280;47427;51.976;5.326;2022-12-07T06:06:02;101706.28;;;2.88;100.00
45403;BME280;47427;51.976;5.326;2022-12-07T06:09:26;101705.41;;;2.76;100.00
45403;BME280;47427;51.976;5.326;2022-12-07T06:12:48;101707.38;;;2.67;100.00
45403;BME280;47427;51.976;5.326;2022-12-07T06:16:14;101706.22;;;2.75;100.00
45403;BME280;47427;51.976;5.326;2022-12-07T06:20:01;101697.63;;;2.88;100.00
45403;BME280;47427;51.976;5.326;2022-12-07T06:23:22;101702.09;;;3.02;100.00
45403;BME280;47427;51.976;5.326;2022-12-07T06:26:44;101695.16;;;2.89;100.00
45403;BME280;47427;51.976;5.326;2022-12-07T06:30:07;101707.31;;;2.78;100.00
45403;BME280;47427;51.976;5.326;2022-12-07T06:33:29;101711.28;;;2.73;100.00
45403;BME280;47427;51.976;5.326;2022-12-07T06:36:52;101705.25;;;2.61;100.00
45403;BME280;47427;51.976;5.326;2022-12-07T06:40:34;101706.59;;;2.44;100.00
45403;BME280;47427;51.976;5.326;2022-12-07T06:43:55;101704.13;;;2.34;100.00
45403;BME280;47427;51.976;5.326;2022-12-07T06:47:17;101694.78;;;2.24;100.00
45403;BME280;47427;51.976;5.326;2022-12-07T06:50:39;101702.91;;;2.41;100.00
45403;BME280;47427;51.976;5.326;2022-12-07T06:54:00;101703.06;;;2.67;100.00
45403;BME280;47427;51.976;5.326;2022-12-07T06:57:22;101706.34;;;2.65;100.00
45403;BME280;47427;51.976;5.326;2022-12-07T07:00:44;101710.41;;;2.61;100.00
45403;BME280;47427;51.976;5.326;2022-12-07T07:04:06;101709.84;;;2.65;100.00
45403;BME280;47427;51.976;5.326;2022-12-07T07:07:28;101701.56;;;2.46;100.00
45403;BME280;47427;51.976;5.326;2022-12-07T07:10:50;101701.00;;;2.26;100.00
45403;BME280;47427;51.976;5.326;2022-12-07T07:14:12;101711.13;;;2.11;100.00
45403;BME280;47427;51.976;5.326;2022-12-07T07:17:33;101702.78;;;2.04;100.00
45403;BME280;47427;51.976;5.326;2022-12-07T07:20:55;101700.75;;;2.11;100.00
45403;BME280;47427;51.976;5.326;2022-12-07T07:24:16;101705.59;;;2.19;100.00
45403;BME280;47427;51.976;5.326;2022-12-07T07:27:38;101714.59;;;2.12;100.00
45403;BME280;47427;51.976;5.326;2022-12-07T07:31:00;101711.69;;;2.19;100.00
45403;BME280;47427;51.976;5.326;2022-12-07T07:34:22;101708.50;;;2.47;100.00
45403;BME280;47427;51.976;5.326;2022-12-07T07:37:43;101701.50;;;2.69;100.00
45403;BME280;47427;51.976;5.326;2022-12-07T07:41:05;101703.50;;;2.73;100.00
45403;BME280;47427;51.976;5.326;2022-12-07T07:44:27;101688.00;;;2.62;100.00
45403;BME280;47427;51.976;5.326;2022-12-07T07:47:48;101708.59;;;2.60;100.00
45403;BME280;47427;51.976;5.326;2022-12-07T07:51:10;101708.06;;;2.52;100.00
45403;BME280;47427;51.976;5.326;2022-12-07T07:54:32;101713.16;;;2.51;100.00
45403;BME280;47427;51.976;5.326;2022-12-07T07:58:14;101716.50;;;2.50;100.00
45403;BME280;47427;51.976;5.326;2022-12-07T08:01:36;101706.47;;;2.43;100.00
45403;BME280;47427;51.976;5.326;2022-12-07T08:04:58;101712.69;;;2.45;100.00
45403;BME280;47427;51.976;5.326;2022-12-07T08:08:21;101705.72;;;2.44;100.00
45403;BME280;47427;51.976;5.326;2022-12-07T08:11:42;101714.25;;;2.54;100.00
45403;BME280;47427;51.976;5.326;2022-12-07T08:15:04;101718.06;;;2.59;100.00
45403;BME280;47427;51.976;5.326;2022-12-07T08:18:26;101713.00;;;2.61;100.00
45403;BME280;47427;51.976;5.326;2022-12-07T08:21:48;101722.22;;;2.69;100.00
45403;BME280;47427;51.976;5.326;2022-12-07T08:25:09;101724.09;;;2.83;100.00
45403;BME280;47427;51.976;5.326;2022-12-07T08:28:31;101713.56;;;3.06;100.00
45403;BME280;47427;51.976;5.326;2022-12-07T08:31:53;101717.97;;;3.32;100.00
45403;BME280;47427;51.976;5.326;2022-12-07T08:35:16;101718.28;;;3.61;100.00
45403;BME280;47427;51.976;5.326;2022-12-07T08:38:39;101722.94;;;3.92;100.00
45403;BME280;47427;51.976;5.326;2022-12-07T08:42:01;101723.63;;;3.89;100.00
45403;BME280;47427;51.976;5.326;2022-12-07T08:45:22;101729.16;;;4.47;100.00
45403;BME280;47427;51.976;5.326;2022-12-07T08:49:05;101739.81;;;5.33;100.00
45403;BME280;47427;51.976;5.326;2022-12-07T08:52:33;101737.44;;;5.66;100.00
45403;BME280;47427;51.976;5.326;2022-12-07T08:56:20;101742.50;;;5.35;100.00
45403;BME280;47427;51.976;5.326;2022-12-07T08:59:41;101739.78;;;5.61;100.00
45403;BME280;47427;51.976;5.326;2022-12-07T09:03:03;101737.53;;;5.96;99.24
45403;BME280;47427;51.976;5.326;2022-12-07T09:06:24;101737.22;;;5.91;98.35
45403;BME280;47427;51.976;5.326;2022-12-07T09:09:46;101729.50;;;5.78;98.76
45403;BME280;47427;51.976;5.326;2022-12-07T09:13:08;101736.56;;;5.65;98.40
45403;BME280;47427;51.976;5.326;2022-12-07T09:16:29;101723.41;;;5.49;98.34
45403;BME280;47427;51.976;5.326;2022-12-07T09:19:51;101729.56;;;5.36;98.45
45403;BME280;47427;51.976;5.326;2022-12-07T09:23:13;101727.06;;;5.38;98.41
45403;BME280;47427;51.976;5.326;2022-12-07T09:26:34;101726.59;;;5.58;97.90
45403;BME280;47427;51.976;5.326;2022-12-07T09:29:56;101723.97;;;6.01;96.97
45403;BME280;47427;51.976;5.326;2022-12-07T09:33:18;101717.16;;;6.49;95.98
45403;BME280;47427;51.976;5.326;2022-12-07T09:36:40;101733.34;;;6.90;94.15
45403;BME280;47427;51.976;5.326;2022-12-07T09:40:03;101730.88;;;6.77;93.78
45403;BME280;47427;51.976;5.326;2022-12-07T09:43:26;101724.91;;;6.79;93.72
45403;BME280;47427;51.976;5.326;2022-12-07T09:46:48;101715.19;;;7.41;92.42
45403;BME280;47427;51.976;5.326;2022-12-07T09:50:21;101713.19;;;7.69;90.89
45403;BME280;47427;51.976;5.326;2022-12-07T09:53:45;101707.44;;;7.26;91.86
45403;BME280;47427;51.976;5.326;2022-12-07T09:57:08;101714.03;;;7.03;92.71
45403;BME280;47427;51.976;5.326;2022-12-07T10:00:32;101713.06;;;8.90;88.87
45403;BME280;47427;51.976;5.326;2022-12-07T10:04:01;101715.38;;;9.21;86.89
45403;BME280;47427;51.976;5.326;2022-12-07T10:07:37;101706.63;;;14.49;73.30
45403;BME280;47427;51.976;5.326;2022-12-07T10:11:03;101704.03;;;17.45;64.48
45403;BME280;47427;51.976;5.326;2022-12-07T10:14:29;101697.69;;;12.84;66.20
45403;BME280;47427;51.976;5.326;2022-12-07T10:17:52;101693.34;;;10.60;72.75
45403;BME280;47427;51.976;5.326;2022-12-07T10:21:23;101701.69;;;10.08;76.69
45403;BME280;47427;51.976;5.326;2022-12-07T10:24:47;101684.91;;;12.96;68.21
45403;BME280;47427;51.976;5.326;2022-12-07T10:31:30;101685.53;;;15.73;60.03
45403;BME280;47427;51.976;5.326;2022-12-07T10:35:27;101675.13;;;15.82;59.93
45403;BME280;47427;51.976;5.326;2022-12-07T10:39:14;101658.34;;;14.92;59.61
45403;BME280;47427;51.976;5.326;2022-12-07T10:42:36;101661.41;;;13.04;63.63
45403;BME280;47427;51.976;5.326;2022-12-07T10:54:08;101660.44;;;10.04;72.92
45403;BME280;47427;51.976;5.326;2022-12-07T10:57:47;101660.38;;;9.81;74.49
45403;BME280;47427;51.976;5.326;2022-12-07T11:05:34;101643.28;;;11.24;72.76
45403;BME280;47427;51.976;5.326;2022-12-07T11:09:28;101643.28;;;10.78;71.75
45403;BME280;47427;51.976;5.326;2022-12-07T11:13:21;101641.72;;;10.15;72.70
45403;BME280;47427;51.976;5.326;2022-12-07T11:17:08;101640.22;;;9.59;74.46
45403;BME280;47427;51.976;5.326;2022-12-07T11:24:52;101653.63;;;8.50;78.14
45403;BME280;47427;51.976;5.326;2022-12-07T11:36:40;101641.16;;;7.56;83.24
45403;BME280;47427;51.976;5.326;2022-12-07T11:40:24;101643.75;;;7.56;83.73
45403;BME280;47427;51.976;5.326;2022-12-07T11:44:30;101636.44;;;7.84;83.23
45403;BME280;47427;51.976;5.326;2022-12-07T11:48:19;101623.59;;;7.54;83.52
45403;BME280;47427;51.976;5.326;2022-12-07T11:51:44;101612.53;;;7.42;84.88
45403;BME280;47427;51.976;5.326;2022-12-07T11:59:23;101606.56;;;7.60;84.61
45403;BME280;47427;51.976;5.326;2022-12-07T12:03:15;101600.81;;;7.33;85.08
45403;BME280;47427;51.976;5.326;2022-12-07T12:06:43;101605.44;;;7.73;84.54
45403;BME280;47427;51.976;5.326;2022-12-07T12:10:22;101602.81;;;8.27;83.15
45403;BME280;47427;51.976;5.326;2022-12-07T12:22:30;101578.28;;;14.18;68.96
45403;BME280;47427;51.976;5.326;2022-12-07T12:25:52;101570.78;;;15.21;63.38
45403;BME280;47427;51.976;5.326;2022-12-07T12:29:33;101571.31;;;15.02;62.83
45403;BME280;47427;51.976;5.326;2022-12-07T12:33:20;101561.63;;;16.01;57.20
45403;BME280;47427;51.976;5.326;2022-12-07T12:36:46;101559.38;;;16.30;57.01
45403;BME280;47427;51.976;5.326;2022-12-07T12:43:45;101557.91;;;13.08;60.74
45403;BME280;47427;51.976;5.326;2022-12-07T12:47:43;101554.13;;;12.36;64.24
45403;BME280;47427;51.976;5.326;2022-12-07T12:55:22;101553.19;;;10.31;69.71
45403;BME280;47427;51.976;5.326;2022-12-07T12:58:44;101543.59;;;10.10;71.10
45403;BME280;47427;51.976;5.326;2022-12-07T13:02:32;101549.59;;;10.29;71.03
45403;BME280;47427;51.976;5.326;2022-12-07T13:09:45;101533.91;;;10.08;71.76
45403;BME280;47427;51.976;5.326;2022-12-07T13:16:40;101528.97;;;9.94;71.42
45403;BME280;47427;51.976;5.326;2022-12-07T13:20:04;101531.41;;;9.67;72.84
45403;BME280;47427;51.976;5.326;2022-12-07T13:23:35;101523.72;;;9.51;73.86
45403;BME280;47427;51.976;5.326;2022-12-07T13:26:58;101524.41;;;9.05;74.29
45403;BME280;47427;51.976;5.326;2022-12-07T13:30:22;101521.50;;;8.58;76.34
45403;BME280;47427;51.976;5.326;2022-12-07T13:33:46;101518.84;;;8.01;78.03
45403;BME280;47427;51.976;5.326;2022-12-07T13:37:32;101515.44;;;7.67;79.34
45403;BME280;47427;51.976;5.326;2022-12-07T13:41:15;101512.16;;;7.71;79.43
45403;BME280;47427;51.976;5.326;2022-12-07T13:44:40;101507.38;;;7.80;79.30
45403;BME280;47427;51.976;5.326;2022-12-07T13:48:03;101484.44;;;7.92;78.98
45403;BME280;47427;51.976;5.326;2022-12-07T13:51:28;101495.31;;;8.39;79.29
45403;BME280;47427;51.976;5.326;2022-12-07T13:58:30;101488.22;;;13.63;64.16
45403;BME280;47427;51.976;5.326;2022-12-07T14:01:54;101488.25;;;14.45;59.77
45403;BME280;47427;51.976;5.326;2022-12-07T14:05:25;101480.59;;;13.77;58.68
45403;BME280;47427;51.976;5.326;2022-12-07T14:08:47;101490.22;;;12.11;62.38
45403;BME280;47427;51.976;5.326;2022-12-07T14:12:11;101489.09;;;10.72;66.29
45403;BME280;47427;51.976;5.326;2022-12-07T14:15:34;101491.84;;;9.61;69.02
45403;BME280;47427;51.976;5.326;2022-12-07T14:18:59;101495.34;;;8.58;71.97
45403;BME280;47427;51.976;5.326;2022-12-07T14:22:36;101489.75;;;7.94;74.80
45403;BME280;47427;51.976;5.326;2022-12-07T14:26:18;101476.50;;;7.35;76.95
45403;BME280;47427;51.976;5.326;2022-12-07T14:29:40;101469.16;;;7.28;77.68
45403;BME280;47427;51.976;5.326;2022-12-07T14:33:05;101466.03;;;7.18;77.78
45403;BME280;47427;51.976;5.326;2022-12-07T14:36:26;101463.16;;;7.29;77.93
45403;BME280;47427;51.976;5.326;2022-12-07T14:39:48;101460.59;;;7.31;78.20
45403;BME280;47427;51.976;5.326;2022-12-07T14:43:12;101467.13;;;7.05;78.73
45403;BME280;47427;51.976;5.326;2022-12-07T14:46:35;101457.09;;;6.78;79.36
45403;BME280;47427;51.976;5.326;2022-12-07T14:49:57;101458.84;;;6.45;80.46
45403;BME280;47427;51.976;5.326;2022-12-07T14:53:23;101447.47;;;6.26;81.29
45403;BME280;47427;51.976;5.326;2022-12-07T14:56:49;101445.34;;;6.19;82.24
45403;BME280;47427;51.976;5.326;2022-12-07T15:00:17;101445.00;;;6.13;82.43
45403;BME280;47427;51.976;5.326;2022-12-07T15:03:39;101441.34;;;6.10;82.34
45403;BME280;47427;51.976;5.326;2022-12-07T15:07:03;101448.41;;;6.12;82.83
45403;BME280;47427;51.976;5.326;2022-12-07T15:10:29;101446.22;;;6.20;83.21
45403;BME280;47427;51.976;5.326;2022-12-07T15:14:18;101460.47;;;6.26;83.66
45403;BME280;47427;51.976;5.326;2022-12-07T15:17:40;101454.88;;;6.19;84.01
45403;BME280;47427;51.976;5.326;2022-12-07T15:21:02;101454.09;;;6.05;84.70
45403;BME280;47427;51.976;5.326;2022-12-07T15:24:23;101446.41;;;5.92;84.97
45403;BME280;47427;51.976;5.326;2022-12-07T15:27:45;101445.88;;;5.66;85.94
45403;BME280;47427;51.976;5.326;2022-12-07T15:31:17;101447.72;;;5.52;86.65
45403;BME280;47427;51.976;5.326;2022-12-07T15:34:38;101448.63;;;5.53;86.93
45403;BME280;47427;51.976;5.326;2022-12-07T15:38:00;101436.50;;;5.53;87.42
45403;BME280;47427;51.976;5.326;2022-12-07T15:41:23;101430.75;;;5.44;87.31
45403;BME280;47427;51.976;5.326;2022-12-07T15:44:45;101415.50;;;5.50;87.76
45403;BME280;47427;51.976;5.326;2022-12-07T15:48:25;101424.66;;;5.43;87.78
45403;BME280;47427;51.976;5.326;2022-12-07T15:51:47;101423.69;;;5.41;88.36
45403;BME280;47427;51.976;5.326;2022-12-07T15:55:12;101422.91;;;5.28;88.89
45403;BME280;47427;51.976;5.326;2022-12-07T15:58:34;101423.75;;;5.27;88.97
45403;BME280;47427;51.976;5.326;2022-12-07T16:01:56;101415.16;;;5.44;88.84
45403;BME280;47427;51.976;5.326;2022-12-07T16:05:17;101419.44;;;5.58;88.85
45403;BME280;47427;51.976;5.326;2022-12-07T16:08:43;101405.59;;;5.59;88.53
45403;BME280;47427;51.976;5.326;2022-12-07T16:12:06;101411.00;;;5.62;88.58
45403;BME280;47427;51.976;5.326;2022-12-07T16:15:28;101405.81;;;5.48;89.13
45403;BME280;47427;51.976;5.326;2022-12-07T16:18:50;101412.94;;;5.35;89.32
45403;BME280;47427;51.976;5.326;2022-12-07T16:22:12;101394.16;;;5.10;89.88
45403;BME280;47427;51.976;5.326;2022-12-07T16:25:33;101406.59;;;5.15;89.66
45403;BME280;47427;51.976;5.326;2022-12-07T16:28:55;101405.63;;;5.13;89.72
45403;BME280;47427;51.976;5.326;2022-12-07T16:32:16;101403.47;;;5.06;89.79
45403;BME280;47427;51.976;5.326;2022-12-07T16:35:39;101395.31;;;5.15;89.98
45403;BME280;47427;51.976;5.326;2022-12-07T16:39:05;101388.56;;;5.18;89.92
45403;BME280;47427;51.976;5.326;2022-12-07T16:42:34;101381.41;;;5.14;89.79
45403;BME280;47427;51.976;5.326;2022-12-07T16:45:56;101382.50;;;5.03;89.94
45403;BME280;47427;51.976;5.326;2022-12-07T16:49:17;101380.44;;;4.97;90.13
45403;BME280;47427;51.976;5.326;2022-12-07T16:52:40;101370.78;;;4.95;89.80
45403;BME280;47427;51.976;5.326;2022-12-07T16:56:02;101377.41;;;5.05;90.43
45403;BME280;47427;51.976;5.326;2022-12-07T16:59:24;101366.56;;;4.97;90.59
45403;BME280;47427;51.976;5.326;2022-12-07T17:02:45;101375.78;;;5.07;90.13
45403;BME280;47427;51.976;5.326;2022-12-07T17:06:25;101379.09;;;5.04;90.50
45403;BME280;47427;51.976;5.326;2022-12-07T17:09:47;101373.81;;;5.03;90.65
45403;BME280;47427;51.976;5.326;2022-12-07T17:13:09;101373.53;;;4.98;90.53
45403;BME280;47427;51.976;5.326;2022-12-07T17:16:49;101369.72;;;4.91;90.51
45403;BME280;47427;51.976;5.326;2022-12-07T17:20:12;101368.13;;;4.78;90.66
45403;BME280;47427;51.976;5.326;2022-12-07T17:23:34;101373.94;;;4.74;90.86
45403;BME280;47427;51.976;5.326;2022-12-07T17:26:56;101362.19;;;4.81;90.91
45403;BME280;47427;51.976;5.326;2022-12-07T17:30:18;101355.13;;;4.78;90.99
45403;BME280;47427;51.976;5.326;2022-12-07T17:33:40;101345.72;;;4.51;91.24
45403;BME280;47427;51.976;5.326;2022-12-07T17:37:02;101354.91;;;4.61;91.25
45403;BME280;47427;51.976;5.326;2022-12-07T17:40:23;101347.03;;;4.74;91.13
45403;BME280;47427;51.976;5.326;2022-12-07T17:43:45;101344.63;;;4.77;90.97
45403;BME280;47427;51.976;5.326;2022-12-07T17:47:07;101339.31;;;4.75;91.33
45403;BME280;47427;51.976;5.326;2022-12-07T17:50:31;101341.28;;;4.80;90.70
45403;BME280;47427;51.976;5.326;2022-12-07T17:54:11;101335.72;;;4.73;90.84
45403;BME280;47427;51.976;5.326;2022-12-07T17:57:33;101319.78;;;4.67;90.67
45403;BME280;47427;51.976;5.326;2022-12-07T18:00:55;101317.91;;;4.65;90.64
45403;BME280;47427;51.976;5.326;2022-12-07T18:04:16;101325.66;;;4.48;91.47
45403;BME280;47427;51.976;5.326;2022-12-07T18:07:38;101306.53;;;4.48;91.90
45403;BME280;47427;51.976;5.326;2022-12-07T18:11:01;101317.63;;;4.75;91.34
45403;BME280;47427;51.976;5.326;2022-12-07T18:14:23;101321.53;;;4.98;90.89
45403;BME280;47427;51.976;5.326;2022-12-07T18:17:45;101329.31;;;5.13;90.98
45403;BME280;47427;51.976;5.326;2022-12-07T18:21:13;101326.78;;;5.14;90.68
45403;BME280;47427;51.976;5.326;2022-12-07T18:24:37;101326.06;;;5.17;91.00
45403;BME280;47427;51.976;5.326;2022-12-07T18:27:59;101320.13;;;5.19;91.46
45403;BME280;47427;51.976;5.326;2022-12-07T18:31:20;101325.88;;;5.14;91.98
45403;BME280;47427;51.976;5.326;2022-12-07T18:34:42;101318.00;;;5.12;92.14
45403;BME280;47427;51.976;5.326;2022-12-07T18:38:03;101306.88;;;5.15;92.09
45403;BME280;47427;51.976;5.326;2022-12-07T18:41:25;101314.69;;;5.15;92.43
45403;BME280;47427;51.976;5.326;2022-12-07T18:44:47;101310.47;;;5.17;92.09
45403;BME280;47427;51.976;5.326;2022-12-07T18:48:08;101313.22;;;5.20;92.44
45403;BME280;47427;51.976;5.326;2022-12-07T18:51:30;101313.50;;;5.25;92.34
45403;BME280;47427;51.976;5.326;2022-12-07T18:54:52;101317.97;;;5.27;92.25
45403;BME280;47427;51.976;5.326;2022-12-07T19:01:56;101317.28;;;5.31;92.57
45403;BME280;47427;51.976;5.326;2022-12-07T19:05:19;101320.09;;;5.34;92.67
45403;BME280;47427;51.976;5.326;2022-12-07T19:09:06;101320.00;;;5.33;92.47
45403;BME280;47427;51.976;5.326;2022-12-07T19:12:27;101310.94;;;5.26;92.95
45403;BME280;47427;51.976;5.326;2022-12-07T19:15:49;101304.44;;;5.18;93.18
45403;BME280;47427;51.976;5.326;2022-12-07T19:19:11;101303.03;;;5.08;93.36
45403;BME280;47427;51.976;5.326;2022-12-07T19:22:32;101296.13;;;5.09;93.88
45403;BME280;47427;51.976;5.326;2022-12-07T19:25:54;101298.38;;;5.03;93.92